Time;durP1;ratioP1;P1;durP2;ratioP2;P2;SDS_P1;SDS_P2;PMS_P1;PMS_P2;Temp;Humidity;BMP_temperature;BMP_pressure;BME280_temperature;BME280_humidity;BME280_pressure;Samples;Min_cycle;Max_cycle;Signal;HPM_P1;HPM_P2
2022/01/16 00:00:42;;;;;;;113.93;18.83;;;;;2.50;96977.00;;;;8469585;27;20226;-72
2022/01/16 00:04:46;;;;;;;114.17;19.53;;;;;2.50;96976.00;;;;8486841;27;20236;-78
2022/01/16 00:08:49;;;;;;;92.20;18.30;;;;;2.50;96981.00;;;;8472669;27;20225;-73
2022/01/16 00:12:58;;;;;;;148.20;22.00;;;;;2.50;96943.00;;;;8486059;27;20250;-76
2022/01/16 00:17:01;;;;;;;167.60;20.30;;;;;2.50;96964.00;;;;8484966;27;20251;-76
2022/01/16 00:21:05;;;;;;;162.77;21.53;;;;;2.60;96967.00;;;;8479824;27;20223;-74
2022/01/16 00:25:09;;;;;;;214.63;21.83;;;;;2.60;96958.00;;;;8471424;27;20241;-72
2022/01/16 00:29:14;;;;;;;171.00;23.30;;;;;2.60;96958.00;;;;8476979;27;20235;-73
2022/01/16 00:33:18;;;;;;;185.40;24.23;;;;;2.60;96923.00;;;;8471430;27;20247;-71
2022/01/16 00:37:21;;;;;;;154.77;21.67;;;;;2.60;96924.00;;;;8477251;27;20655;-76
2022/01/16 00:41:25;;;;;;;131.63;20.87;;;;;2.60;96930.00;;;;8476364;27;20242;-72
2022/01/16 00:45:34;;;;;;;92.50;18.30;;;;;2.60;96923.00;;;;8478779;27;20247;-71
2022/01/16 00:49:39;;;;;;;144.37;21.70;;;;;2.60;96940.00;;;;8480096;27;20644;-77
2022/01/16 00:53:43;;;;;;;145.73;21.23;;;;;2.60;96932.00;;;;8473257;27;20249;-75
2022/01/16 00:57:46;;;;;;;126.60;20.10;;;;;2.60;96922.00;;;;8475935;27;20231;-72
2022/01/16 01:01:51;;;;;;;141.33;21.30;;;;;2.60;96931.00;;;;8472374;27;20292;-74
2022/01/16 01:05:55;;;;;;;147.80;21.57;;;;;2.60;96919.00;;;;8481843;27;24909;-72
2022/01/16 01:09:58;;;;;;;89.40;17.13;;;;;2.60;96921.00;;;;8482277;27;20319;-77
2022/01/16 01:14:20;;;;;;;86.77;18.10;;;;;2.50;96951.00;;;;8474070;27;20311;-75
2022/01/16 01:18:26;;;;;;;73.50;16.67;;;;;2.50;96950.00;;;;8480074;27;20667;-77
2022/01/16 01:22:29;;;;;;;94.67;18.10;;;;;2.50;96910.00;;;;8487330;27;20237;-72
2022/01/16 01:26:37;;;;;;;102.67;19.20;;;;;2.50;96833.00;;;;8481722;27;20303;-73
2022/01/16 01:30:42;;;;;;;114.67;18.73;;;;;2.50;96821.00;;;;8488351;27;20319;-74
2022/01/16 01:34:46;;;;;;;123.07;20.00;;;;;2.50;96830.00;;;;8484589;27;20693;-72
2022/01/16 01:38:51;;;;;;;149.07;21.03;;;;;2.50;96861.00;;;;8493315;27;20688;-72
2022/01/16 01:51:03;;;;;;;182.97;21.17;;;;;2.50;96875.00;;;;8480748;27;20311;-75
2022/01/16 01:51:51;;;;;;;121.87;21.47;;;;;2.40;96883.00;;;;8484268;27;20242;-71
2022/01/16 01:55:54;;;;;;;143.60;19.97;;;;;2.50;96873.00;;;;8481819;27;20258;-73
2022/01/16 01:59:57;;;;;;;99.23;19.70;;;;;2.50;96857.00;;;;8462002;27;20336;-71
2022/01/16 02:04:00;;;;;;;139.77;20.40;;;;;2.40;96868.00;;;;8470043;27;20269;-71
2022/01/16 02:08:06;;;;;;;141.70;21.00;;;;;2.30;96875.00;;;;8479570;27;20268;-73
2022/01/16 02:12:11;;;;;;;121.37;19.67;;;;;2.30;96881.00;;;;8489932;27;20273;-71
2022/01/16 02:38:26;;;;;;;238.50;25.67;;;;;2.20;96845.00;;;;8482287;27;20234;-74
2022/01/16 02:42:36;;;;;;;216.03;24.80;;;;;2.30;96845.00;;;;8490922;27;20254;-72
2022/01/16 02:46:44;;;;;;;321.10;26.93;;;;;2.30;96841.00;;;;8477778;27;20656;-72
2022/01/16 02:50:47;;;;;;;195.70;23.93;;;;;2.40;96841.00;;;;8486497;27;20326;-73
2022/01/16 02:54:53;;;;;;;169.30;19.83;;;;;2.30;96837.00;;;;8483057;27;20328;-72
2022/01/16 02:58:58;;;;;;;152.40;21.27;;;;;2.20;96822.00;;;;8474429;27;20252;-76
2022/01/16 03:03:01;;;;;;;176.67;19.47;;;;;2.20;96835.00;;;;8469461;22;20275;-77
2022/01/16 03:07:05;;;;;;;174.13;21.67;;;;;2.20;96831.00;;;;8379852;28;20277;-77
2022/01/16 03:11:25;;;;;;;300.50;27.33;;;;;2.20;96836.00;;;;8385942;28;20267;-75
2022/01/16 03:15:30;;;;;;;343.23;27.40;;;;;2.30;96840.00;;;;8379047;28;20268;-71
2022/01/16 03:23:54;;;;;;;137.47;19.80;;;;;2.20;96836.00;;;;8385341;28;20246;-73
2022/01/16 03:27:57;;;;;;;169.03;22.50;;;;;2.20;96849.00;;;;8397418;28;20262;-72
2022/01/16 03:32:04;;;;;;;177.57;21.87;;;;;2.20;96840.00;;;;8382053;28;20320;-72
2022/01/16 03:36:08;;;;;;;276.27;23.87;;;;;2.20;96837.00;;;;8390615;28;20319;-74
2022/01/16 03:40:13;;;;;;;185.20;20.40;;;;;2.20;96826.00;;;;8386253;28;20300;-75
2022/01/16 03:44:16;;;;;;;266.03;23.77;;;;;2.20;96830.00;;;;8376688;28;20272;-73
2022/01/16 03:48:21;;;;;;;343.97;24.23;;;;;2.20;96820.00;;;;8386269;28;20235;-72
2022/01/16 03:52:24;;;;;;;200.23;22.00;;;;;2.20;96824.00;;;;8382258;28;20224;-72
2022/01/16 03:56:27;;;;;;;230.73;22.33;;;;;2.20;96821.00;;;;8385113;28;20253;-77
2022/01/16 04:00:31;;;;;;;202.03;26.27;;;;;2.20;96813.00;;;;8392889;28;20225;-74
2022/01/16 04:04:36;;;;;;;410.00;33.20;;;;;2.20;96815.00;;;;8367238;28;20777;-77
2022/01/16 04:08:39;;;;;;;291.53;24.17;;;;;2.10;96823.00;;;;8357612;28;20311;-75
2022/01/16 04:12:44;;;;;;;242.80;23.40;;;;;2.00;96825.00;;;;8364959;28;20667;-80
2022/01/16 04:16:48;;;;;;;455.07;40.93;;;;;2.00;96834.00;;;;8362856;28;20705;-74
2022/01/16 04:20:52;;;;;;;457.97;33.73;;;;;2.10;96825.00;;;;8361997;28;20239;-75
2022/01/16 04:24:56;;;;;;;237.97;23.10;;;;;2.10;96840.00;;;;8369174;28;20261;-74
2022/01/16 04:28:59;;;;;;;230.23;22.60;;;;;2.10;96838.00;;;;8360216;28;20310;-73
2022/01/16 04:33:02;;;;;;;305.23;25.57;;;;;2.10;96834.00;;;;8361875;28;20218;-76
2022/01/16 04:37:07;;;;;;;142.70;18.40;;;;;2.10;96817.00;;;;8356315;28;20390;-76
2022/01/16 04:45:32;;;;;;;139.17;18.43;;;;;2.10;96806.00;;;;8359442;28;20895;-77
2022/01/16 04:49:35;;;;;;;133.53;18.47;;;;;2.10;96807.00;;;;8361253;28;20758;-74
2022/01/16 04:53:40;;;;;;;729.07;70.97;;;;;2.20;96797.00;;;;8360870;28;20728;-77
2022/01/16 04:57:44;;;;;;;176.07;18.00;;;;;2.10;96793.00;;;;8360543;28;20249;-76
2022/01/16 05:01:47;;;;;;;139.43;17.87;;;;;2.10;96787.00;;;;8359106;28;20303;-73
2022/01/16 05:05:50;;;;;;;119.50;16.13;;;;;1.90;96785.00;;;;8364244;28;20225;-78
2022/01/16 05:09:55;;;;;;;109.43;15.00;;;;;1.80;96785.00;;;;8361947;28;20247;-76
2022/01/16 05:18:19;;;;;;;158.10;17.97;;;;;1.70;96790.00;;;;8356351;28;20224;-74
2022/01/16 05:22:22;;;;;;;185.03;20.27;;;;;1.60;96787.00;;;;8358639;28;20258;-76
2022/01/16 05:26:27;;;;;;;218.77;21.03;;;;;1.60;96797.00;;;;8356570;28;20248;-75
2022/01/16 05:30:30;;;;;;;216.43;21.30;;;;;1.60;96785.00;;;;8351868;28;20331;-74
2022/01/16 05:34:33;;;;;;;87.33;12.90;;;;;1.50;96787.00;;;;8356686;28;20272;-75
2022/01/16 05:38:36;;;;;;;933.37;112.17;;;;;1.50;96792.00;;;;8366765;28;20323;-73
2022/01/16 05:42:41;;;;;;;165.13;20.67;;;;;1.50;96775.00;;;;8359792;28;20277;-75
2022/01/16 05:46:44;;;;;;;160.93;19.87;;;;;1.40;96775.00;;;;8357965;28;20226;-80
2022/01/16 05:50:47;;;;;;;68.97;13.67;;;;;1.40;96799.00;;;;8364042;28;20238;-77
2022/01/16 05:54:51;;;;;;;125.17;18.47;;;;;1.30;96812.00;;;;8350996;28;20333;-74
2022/01/16 05:58:55;;;;;;;122.43;18.83;;;;;1.30;96816.00;;;;8361773;28;20268;-73
2022/01/16 06:02:58;;;;;;;100.40;17.70;;;;;1.30;96818.00;;;;8372087;28;20260;-75
2022/01/16 06:07:02;;;;;;;162.27;20.17;;;;;1.30;96826.00;;;;8363367;28;20326;-73
2022/01/16 06:11:05;;;;;;;112.47;16.97;;;;;1.30;96835.00;;;;8361259;28;20274;-75
2022/01/16 06:15:10;;;;;;;80.87;15.37;;;;;1.20;96835.00;;;;8365396;28;20250;-76
2022/01/16 06:19:14;;;;;;;59.53;11.77;;;;;1.10;96835.00;;;;8366588;28;20300;-78
2022/01/16 06:23:17;;;;;;;66.50;12.03;;;;;1.00;96848.00;;;;8360291;28;20264;-74
2022/01/16 06:27:20;;;;;;;59.63;11.30;;;;;1.10;96841.00;;;;8364348;28;20287;-76
2022/01/16 06:31:25;;;;;;;54.27;10.77;;;;;1.20;96833.00;;;;8358736;28;20263;-75
2022/01/16 06:35:28;;;;;;;59.83;10.07;;;;;1.10;96831.00;;;;8362716;28;20233;-73
2022/01/16 06:39:32;;;;;;;34.20;7.17;;;;;1.10;96831.00;;;;8372332;28;20243;-75
2022/01/16 06:43:35;;;;;;;54.10;10.33;;;;;1.10;96835.00;;;;8367684;28;20721;-75
2022/01/16 06:47:40;;;;;;;49.47;9.97;;;;;1.10;96843.00;;;;8342152;28;20233;-74
2022/01/16 06:51:43;;;;;;;51.10;10.47;;;;;1.20;96842.00;;;;8373154;28;20351;-73
2022/01/16 06:55:46;;;;;;;56.27;12.80;;;;;1.20;96835.00;;;;8359618;28;20263;-75
2022/01/16 06:59:51;;;;;;;75.73;23.13;;;;;1.30;96842.00;;;;8355281;28;20316;-74
2022/01/16 07:03:56;;;;;;;1276.13;546.47;;;;;1.30;96839.00;;;;8360131;28;20363;-77
2022/01/16 07:07:59;;;;;;;312.37;140.33;;;;;1.30;96833.00;;;;8365394;28;20437;-74
2022/01/16 07:12:02;;;;;;;145.67;45.47;;;;;1.30;96852.00;;;;8362431;28;20261;-76
2022/01/16 07:16:06;;;;;;;179.80;56.30;;;;;1.30;96869.00;;;;8362354;28;20310;-74
2022/01/16 07:20:14;;;;;;;311.83;85.23;;;;;1.40;96867.00;;;;8360841;28;23245;-73
2022/01/16 07:24:17;;;;;;;204.23;55.53;;;;;1.40;96871.00;;;;8360462;28;20235;-71
2022/01/16 07:28:21;;;;;;;116.57;30.00;;;;;1.40;96859.00;;;;8358690;28;20250;-75
2022/01/16 07:32:24;;;;;;;223.77;57.63;;;;;1.50;96851.00;;;;8353853;28;20312;-73
2022/01/16 07:36:29;;;;;;;247.37;99.10;;;;;1.50;96859.00;;;;8363306;28;20282;-73
2022/01/16 07:40:33;;;;;;;81.57;31.53;;;;;1.50;96865.00;;;;8362421;28;20338;-75
2022/01/16 07:44:36;;;;;;;77.50;22.73;;;;;1.60;96880.00;;;;8336000;28;20713;-78
2022/01/16 07:48:39;;;;;;;76.03;29.40;;;;;1.60;96885.00;;;;8353007;28;20827;-70
2022/01/16 07:52:44;;;;;;;70.47;20.03;;;;;1.70;96881.00;;;;8360037;28;20255;-74
2022/01/16 07:56:47;;;;;;;192.53;101.40;;;;;1.70;96879.00;;;;8365249;28;20216;-71
2022/01/16 08:00:51;;;;;;;84.07;23.50;;;;;1.70;96889.00;;;;8363255;28;20261;-75
2022/01/16 08:04:54;;;;;;;68.10;23.27;;;;;1.70;96899.00;;;;8357034;28;20237;-77
2022/01/16 08:08:59;;;;;;;68.80;15.57;;;;;1.70;96892.00;;;;8356508;28;20228;-77
2022/01/16 08:13:02;;;;;;;73.97;13.70;;;;;1.80;96892.00;;;;8357860;28;20317;-80
2022/01/16 08:17:05;;;;;;;66.30;13.87;;;;;1.80;96896.00;;;;8367671;28;20683;-77
2022/01/16 08:21:09;;;;;;;54.37;11.90;;;;;1.90;96888.00;;;;8358980;28;20225;-76
2022/01/16 08:25:14;;;;;;;67.33;12.53;;;;;1.90;96906.00;;;;8363417;28;20652;-75
2022/01/16 08:29:17;;;;;;;59.07;13.23;;;;;1.80;96904.00;;;;8361306;28;20782;-75
2022/01/16 08:33:21;;;;;;;60.10;13.30;;;;;1.80;96898.00;;;;8357743;28;20323;-74
2022/01/16 08:37:28;;;;;;;61.80;11.83;;;;;1.80;96895.00;;;;8363067;28;20227;-76
2022/01/16 08:41:33;;;;;;;64.00;14.33;;;;;1.90;96895.00;;;;8352332;28;20600;-77
2022/01/16 08:45:37;;;;;;;120.57;55.97;;;;;2.00;96901.00;;;;8360827;28;20250;-77
2022/01/16 08:49:40;;;;;;;114.77;37.13;;;;;2.00;96892.00;;;;8350991;28;20237;-75
2022/01/16 08:53:45;;;;;;;119.70;36.57;;;;;2.10;96895.00;;;;8371858;28;20274;-77
2022/01/16 08:57:50;;;;;;;206.43;77.17;;;;;2.20;96894.00;;;;8369115;28;20344;-78
2022/01/16 09:01:53;;;;;;;89.77;29.53;;;;;2.30;96915.00;;;;8360975;28;20226;-74
2022/01/16 09:05:57;;;;;;;90.90;27.97;;;;;2.40;96909.00;;;;8368602;28;20221;-78
2022/01/16 09:10:01;;;;;;;82.50;27.77;;;;;2.50;96912.00;;;;8359166;28;20257;-78
2022/01/16 09:14:06;;;;;;;68.33;16.60;;;;;2.60;96909.00;;;;8359501;28;20245;-74
2022/01/16 09:18:09;;;;;;;64.10;17.43;;;;;2.70;96903.00;;;;8364039;28;20257;-78
2022/01/16 09:22:12;;;;;;;61.57;21.30;;;;;2.90;96903.00;;;;8361449;28;20256;-85
2022/01/16 09:26:16;;;;;;;136.97;53.50;;;;;2.90;96908.00;;;;8354804;28;20245;-78
2022/01/16 09:30:22;;;;;;;48.63;19.10;;;;;3.10;96913.00;;;;8345217;28;20260;-76
2022/01/16 09:34:26;;;;;;;70.67;26.27;;;;;3.10;96907.00;;;;8364059;28;20624;-79
2022/01/16 09:38:29;;;;;;;59.40;18.27;;;;;3.30;96905.00;;;;8363447;28;20230;-75
2022/01/16 09:42:33;;;;;;;49.10;16.43;;;;;3.30;96916.00;;;;8359469;28;20254;-78
2022/01/16 09:46:37;;;;;;;64.97;20.63;;;;;3.40;96908.00;;;;8365955;28;20314;-78
2022/01/16 09:50:41;;;;;;;49.47;21.03;;;;;3.50;96911.00;;;;8371589;28;20317;-78
2022/01/16 09:54:44;;;;;;;73.10;43.57;;;;;3.60;96913.00;;;;8359966;28;20278;-80
2022/01/16 09:58:48;;;;;;;46.50;17.67;;;;;3.70;96923.00;;;;8357961;28;20342;-79
2022/01/16 10:02:53;;;;;;;47.70;15.43;;;;;3.80;96915.00;;;;8362186;28;20267;-76
2022/01/16 10:06:58;;;;;;;45.60;15.27;;;;;3.70;96914.00;;;;8363861;28;20255;-78
2022/01/16 10:11:20;;;;;;;45.67;17.20;;;;;3.70;96904.00;;;;8368863;28;20254;-78
2022/01/16 10:15:25;;;;;;;49.10;17.53;;;;;3.70;96904.00;;;;8362569;28;20259;-78
2022/01/16 10:19:31;;;;;;;58.73;18.53;;;;;3.60;96894.00;;;;8362853;28;20873;-82
2022/01/16 10:23:40;;;;;;;43.67;16.20;;;;;3.60;96887.00;;;;8376114;28;20231;-81
2022/01/16 10:27:45;;;;;;;57.27;20.47;;;;;3.60;96907.00;;;;8365962;28;20632;-79
2022/01/16 10:31:50;;;;;;;59.47;19.37;;;;;3.70;96897.00;;;;8369874;28;20321;-82
2022/01/16 10:35:56;;;;;;;54.30;19.93;;;;;3.70;96885.00;;;;8362498;28;20243;-85
2022/01/16 10:40:01;;;;;;;59.70;20.97;;;;;3.60;96883.00;;;;8365941;28;20594;-80
2022/01/16 10:44:25;;;;;;;59.40;21.27;;;;;3.60;96890.00;;;;8367643;28;20243;-81
2022/01/16 10:48:28;;;;;;;56.70;18.97;;;;;3.70;96903.00;;;;8354899;28;20230;-81
2022/01/16 10:52:33;;;;;;;50.17;18.67;;;;;3.70;96906.00;;;;8360614;28;20281;-87
2022/01/16 10:56:37;;;;;;;163.13;74.57;;;;;3.60;96891.00;;;;8361063;28;20740;-79
2022/01/16 11:00:42;;;;;;;64.03;23.97;;;;;3.60;96898.00;;;;8356714;28;20318;-79
2022/01/16 11:04:46;;;;;;;52.47;19.37;;;;;3.70;96893.00;;;;8359332;28;20672;-78
2022/01/16 11:08:52;;;;;;;56.03;20.07;;;;;3.60;96885.00;;;;8344850;28;20226;-79
2022/01/16 11:12:57;;;;;;;58.83;23.43;;;;;3.50;96890.00;;;;8352913;28;20338;-77
2022/01/16 11:17:01;;;;;;;52.30;21.00;;;;;3.60;96884.00;;;;8361595;28;20229;-83
2022/01/16 11:21:14;;;;;;;55.30;21.10;;;;;3.70;96871.00;;;;8358259;28;20254;-84
2022/01/16 11:25:26;;;;;;;56.40;21.40;;;;;3.70;96880.00;;;;8362748;28;20263;-82
2022/01/16 11:29:30;;;;;;;49.20;19.03;;;;;3.70;96878.00;;;;8365607;28;20260;-81
2022/01/16 11:33:35;;;;;;;44.23;19.17;;;;;3.70;96886.00;;;;8358147;28;20315;-80
2022/01/16 11:37:39;;;;;;;47.63;22.50;;;;;3.60;96911.00;;;;8356901;28;20646;-81
2022/01/16 11:42:05;;;;;;;59.40;22.47;;;;;3.50;96910.00;;;;8362673;28;20326;-87
2022/01/16 11:46:14;;;;;;;52.93;21.10;;;;;3.40;96909.00;;;;8356948;28;21029;-84
2022/01/16 11:50:17;;;;;;;59.53;20.20;;;;;3.40;96901.00;;;;8351213;28;20316;-81
2022/01/16 11:54:26;;;;;;;48.73;18.60;;;;;3.40;96897.00;;;;8354162;28;20319;-80
2022/01/16 11:59:05;;;;;;;58.17;21.60;;;;;3.30;96911.00;;;;8357275;28;20302;-83
2022/01/16 12:03:38;;;;;;;56.50;20.77;;;;;3.30;96913.00;;;;8327233;28;20235;-82
2022/01/16 12:07:55;;;;;;;48.80;19.60;;;;;3.30;96912.00;;;;8329483;28;20218;-83
2022/01/16 12:12:00;;;;;;;41.97;16.03;;;;;3.30;96921.00;;;;8361278;28;20709;-81
2022/01/16 12:16:42;;;;;;;45.07;18.47;;;;;3.10;96922.00;;;;8354122;28;20948;-80
2022/01/16 12:20:46;;;;;;;45.43;17.70;;;;;3.10;96898.00;;;;8249643;28;20222;-80
2022/01/16 12:25:04;;;;;;;53.50;19.67;;;;;3.00;96933.00;;;;8359908;28;20259;-78
2022/01/16 12:29:07;;;;;;;55.57;21.30;;;;;3.10;96936.00;;;;8362995;28;20244;-83
2022/01/16 12:33:22;;;;;;;50.23;18.00;;;;;3.00;96941.00;;;;8356694;28;20319;-85
2022/01/16 12:37:42;;;;;;;55.63;20.40;;;;;2.90;96932.00;;;;8351889;28;20324;-79
2022/01/16 12:41:46;;;;;;;47.27;19.77;;;;;3.00;96936.00;;;;8364706;28;20253;-81
2022/01/16 12:45:49;;;;;;;56.57;20.50;;;;;3.00;96947.00;;;;8356743;28;20220;-88
2022/01/16 12:49:54;;;;;;;51.17;20.40;;;;;3.00;96936.00;;;;8361890;28;20238;-80
2022/01/16 12:54:02;;;;;;;54.80;20.83;;;;;3.00;96947.00;;;;8355687;28;20800;-80
2022/01/16 12:58:15;;;;;;;49.30;18.03;;;;;3.00;96942.00;;;;8350697;28;20263;-80
2022/01/16 13:02:18;;;;;;;55.03;21.00;;;;;3.00;96953.00;;;;8359137;28;20737;-79
2022/01/16 13:06:28;;;;;;;55.10;19.80;;;;;3.00;96958.00;;;;8358599;28;20678;-78
2022/01/16 13:10:32;;;;;;;49.37;17.43;;;;;3.00;96946.00;;;;8370040;28;20692;-80
2022/01/16 13:14:39;;;;;;;55.67;20.60;;;;;2.90;96953.00;;;;8364449;28;20241;-81
2022/01/16 13:19:08;;;;;;;45.93;17.43;;;;;2.80;96965.00;;;;8363260;28;20223;-82
2022/01/16 13:23:25;;;;;;;45.40;18.43;;;;;2.80;96976.00;;;;8311353;28;20233;-75
2022/01/16 13:27:42;;;;;;;39.23;15.97;;;;;2.70;96974.00;;;;8323436;28;20223;-80
2022/01/16 13:31:52;;;;;;;29.30;11.97;;;;;2.70;96966.00;;;;8346838;28;20232;-81
2022/01/16 13:35:59;;;;;;;32.13;13.77;;;;;2.50;96974.00;;;;8364782;28;20249;-80
2022/01/16 13:40:07;;;;;;;30.03;13.10;;;;;2.50;96978.00;;;;8367684;28;20253;-83
2022/01/16 13:44:27;;;;;;;14.43;8.60;;;;;2.40;96980.00;;;;8364938;28;20630;-81
2022/01/16 13:48:31;;;;;;;27.77;14.95;;;;;2.20;96992.00;;;;8358082;28;20581;-88
2022/01/16 13:52:34;;;;;;;28.30;13.37;;;;;2.40;96999.00;;;;8361786;28;20230;-85
2022/01/16 13:56:49;;;;;;;25.90;11.10;;;;;2.40;97001.00;;;;8359386;28;20568;-88
2022/01/16 14:00:54;;;;;;;30.10;12.43;;;;;2.30;97001.00;;;;8364101;28;20754;-84
2022/01/16 14:04:58;;;;;;;27.73;11.63;;;;;2.20;96996.00;;;;8369319;28;20235;-84
2022/01/16 14:09:03;;;;;;;22.87;10.80;;;;;2.20;97011.00;;;;8345689;28;21240;-83
2022/01/16 14:13:10;;;;;;;23.13;10.03;;;;;2.20;97006.00;;;;8343041;28;20707;-82
2022/01/16 14:22:02;;;;;;;19.77;8.80;;;;;2.10;97011.00;;;;8342776;28;20297;-82
2022/01/16 14:26:05;;;;;;;22.77;10.70;;;;;2.10;97027.00;;;;8365761;28;20222;-83
2022/01/16 14:30:15;;;;;;;25.73;12.33;;;;;2.10;97032.00;;;;8362793;28;20308;-87
2022/01/16 14:34:20;;;;;;;18.73;8.10;;;;;2.10;97038.00;;;;8355071;28;20334;-81
2022/01/16 14:38:24;;;;;;;16.17;6.60;;;;;2.10;97044.00;;;;8355985;28;20250;-81
2022/01/16 14:42:35;;;;;;;20.07;8.47;;;;;2.10;97046.00;;;;8356309;28;20323;-81
2022/01/16 14:46:40;;;;;;;17.17;7.00;;;;;2.10;97039.00;;;;8359492;28;20285;-81
2022/01/16 14:50:43;;;;;;;18.13;8.60;;;;;2.10;97056.00;;;;8359991;28;20236;-81
2022/01/16 14:54:49;;;;;;;17.77;8.33;;;;;2.20;97058.00;;;;8359213;28;20772;-81
2022/01/16 14:58:53;;;;;;;20.27;8.93;;;;;2.20;97054.00;;;;8367282;28;20229;-84
2022/01/16 15:02:58;;;;;;;18.67;8.87;;;;;2.20;97065.00;;;;8368867;28;20320;-84
2022/01/16 15:07:01;;;;;;;20.43;8.73;;;;;2.20;97083.00;;;;8362853;28;20279;-81
2022/01/16 15:11:05;;;;;;;26.47;11.03;;;;;2.20;97086.00;;;;8366814;28;20250;-69
2022/01/16 15:15:11;;;;;;;24.27;10.00;;;;;2.20;97078.00;;;;8361767;28;20707;-73
2022/01/16 15:19:17;;;;;;;28.73;11.80;;;;;2.20;97080.00;;;;8362448;28;20225;-70
2022/01/16 15:23:21;;;;;;;25.67;11.30;;;;;2.20;97085.00;;;;8359340;28;20218;-70
2022/01/16 15:27:27;;;;;;;29.97;12.17;;;;;2.10;97083.00;;;;8357448;28;20302;-71
2022/01/16 15:31:32;;;;;;;24.33;11.70;;;;;2.20;97091.00;;;;8356349;28;20256;-75
2022/01/16 15:35:37;;;;;;;33.03;12.37;;;;;2.20;97099.00;;;;8361676;28;20237;-70
2022/01/16 15:39:40;;;;;;;34.77;13.23;;;;;2.20;97096.00;;;;8360684;28;20258;-69
2022/01/16 15:43:44;;;;;;;29.57;12.60;;;;;2.10;97110.00;;;;8358226;28;20230;-69
2022/01/16 15:47:47;;;;;;;31.47;13.20;;;;;2.10;97120.00;;;;8357584;28;20233;-71
2022/01/16 15:51:52;;;;;;;37.90;13.53;;;;;2.00;97108.00;;;;8354054;28;20308;-69
2022/01/16 15:55:57;;;;;;;30.33;12.23;;;;;2.10;97108.00;;;;8353697;28;20295;-71
2022/01/16 16:00:03;;;;;;;31.07;12.37;;;;;2.10;97120.00;;;;8348138;28;20555;-74
2022/01/16 16:04:06;;;;;;;29.27;12.53;;;;;2.10;97120.00;;;;8360905;28;20308;-73
2022/01/16 16:08:12;;;;;;;33.47;14.33;;;;;2.10;97137.00;;;;8361490;28;20250;-78
2022/01/16 16:12:15;;;;;;;34.93;12.40;;;;;2.10;97149.00;;;;8364664;28;20250;-74
2022/01/16 16:16:18;;;;;;;32.97;14.83;;;;;2.20;97146.00;;;;8346854;28;20313;-76
2022/01/16 16:20:25;;;;;;;36.10;14.67;;;;;2.10;97140.00;;;;8360815;28;20742;-73
2022/01/16 16:24:29;;;;;;;42.70;17.17;;;;;2.20;97143.00;;;;8357472;28;20307;-69
2022/01/16 16:28:48;;;;;;;40.13;16.07;;;;;2.20;97155.00;;;;8353733;28;20759;-71
2022/01/16 16:32:53;;;;;;;33.67;13.20;;;;;2.20;97166.00;;;;8349217;28;20224;-70
2022/01/16 16:36:56;;;;;;;44.33;17.40;;;;;2.30;97166.00;;;;8349271;28;20874;-69
2022/01/16 16:41:03;;;;;;;44.87;17.33;;;;;2.30;97183.00;;;;8356572;28;20816;-70
2022/01/16 16:45:07;;;;;;;46.03;17.87;;;;;2.40;97186.00;;;;8350450;28;20838;-73
2022/01/16 16:49:16;;;;;;;42.90;16.53;;;;;2.40;97187.00;;;;8311940;28;20226;-72
2022/01/16 16:53:24;;;;;;;41.73;16.67;;;;;2.40;97191.00;;;;8345905;28;20251;-72
2022/01/16 16:57:47;;;;;;;44.90;16.50;;;;;2.40;97193.00;;;;8353493;28;20941;-72
2022/01/16 17:01:50;;;;;;;43.47;15.80;;;;;2.40;97201.00;;;;8356848;28;20307;-70
2022/01/16 17:05:53;;;;;;;45.13;17.17;;;;;2.50;97208.00;;;;8337490;28;20621;-72
2022/01/16 17:09:57;;;;;;;41.30;16.60;;;;;2.50;97218.00;;;;8363374;28;20876;-71
2022/01/16 17:14:01;;;;;;;48.97;18.07;;;;;2.60;97214.00;;;;8360000;28;20238;-71
2022/01/16 17:18:06;;;;;;;41.23;16.57;;;;;2.60;97213.00;;;;8357280;28;20268;-70
2022/01/16 17:22:10;;;;;;;46.60;18.10;;;;;2.50;97229.00;;;;8355558;28;20248;-72
2022/01/16 17:26:14;;;;;;;60.27;23.97;;;;;2.60;97224.00;;;;8356554;28;20263;-70
2022/01/16 17:30:20;;;;;;;40.73;17.30;;;;;2.70;97230.00;;;;8356630;28;20226;-74
2022/01/16 17:34:24;;;;;;;80.20;29.20;;;;;2.70;97226.00;;;;8350940;28;20322;-71
2022/01/16 17:38:27;;;;;;;53.10;20.67;;;;;2.80;97227.00;;;;8358223;28;20248;-74
2022/01/16 17:42:30;;;;;;;70.67;29.43;;;;;2.80;97237.00;;;;8361812;28;20983;-70
2022/01/16 17:46:37;;;;;;;51.07;22.17;;;;;2.90;97235.00;;;;8350376;28;20241;-70
2022/01/16 17:50:40;;;;;;;60.27;24.97;;;;;2.90;97234.00;;;;8353970;28;20756;-70
2022/01/16 17:54:45;;;;;;;56.27;22.87;;;;;2.90;97234.00;;;;8352973;28;20252;-69
2022/01/16 17:58:52;;;;;;;51.23;21.23;;;;;3.00;97219.00;;;;8361918;28;20231;-71
2022/01/16 18:02:56;;;;;;;49.70;20.13;;;;;3.10;97229.00;;;;8362504;28;20274;-74
2022/01/16 18:07:00;;;;;;;51.80;20.67;;;;;3.10;97236.00;;;;8360589;28;20232;-69
2022/01/16 18:11:03;;;;;;;46.70;18.97;;;;;3.10;97236.00;;;;8366340;28;21125;-71
2022/01/16 18:15:07;;;;;;;50.20;20.20;;;;;3.20;97245.00;;;;8363441;28;20252;-73
2022/01/16 18:19:12;;;;;;;58.43;22.43;;;;;3.10;97246.00;;;;8361556;28;20233;-69
2022/01/16 18:23:15;;;;;;;42.93;19.00;;;;;3.10;97238.00;;;;8361260;28;20650;-71
2022/01/16 18:27:19;;;;;;;48.00;17.97;;;;;3.00;97232.00;;;;8354961;28;20253;-76
2022/01/16 18:31:22;;;;;;;58.30;20.80;;;;;3.00;97226.00;;;;8357592;28;21055;-75
2022/01/16 18:35:26;;;;;;;58.17;21.77;;;;;2.90;97243.00;;;;8362128;28;20717;-72
2022/01/16 18:39:30;;;;;;;53.57;22.17;;;;;3.00;97262.00;;;;8364221;28;20253;-68
2022/01/16 18:43:35;;;;;;;53.87;20.60;;;;;3.00;97273.00;;;;8361224;28;20231;-69
2022/01/16 18:47:39;;;;;;;52.33;18.97;;;;;3.00;97277.00;;;;8361814;28;20321;-69
2022/01/16 18:51:44;;;;;;;46.87;18.73;;;;;3.10;97279.00;;;;8365608;28;20314;-72
2022/01/16 18:56:01;;;;;;;49.93;16.93;;;;;3.10;97274.00;;;;8359598;28;20239;-73
2022/01/16 19:00:08;;;;;;;44.67;17.47;;;;;3.20;97277.00;;;;8363322;28;20841;-69
2022/01/16 19:04:13;;;;;;;47.80;18.70;;;;;3.20;97286.00;;;;8361639;28;20277;-75
2022/01/16 19:08:17;;;;;;;40.13;15.67;;;;;3.20;97282.00;;;;8355055;28;20251;-70
2022/01/16 19:12:21;;;;;;;119.23;36.10;;;;;3.20;97286.00;;;;8363972;28;20250;-68
2022/01/16 19:16:26;;;;;;;45.33;18.73;;;;;3.20;97278.00;;;;8361382;28;20288;-69
2022/01/16 19:20:30;;;;;;;45.47;18.90;;;;;3.20;97279.00;;;;8362256;28;20234;-70
2022/01/16 19:24:34;;;;;;;46.40;18.27;;;;;3.20;97279.00;;;;8363682;28;20229;-68
2022/01/16 19:28:37;;;;;;;40.83;17.43;;;;;3.20;97279.00;;;;8364145;28;20262;-74
2022/01/16 19:32:41;;;;;;;39.63;18.37;;;;;3.20;97291.00;;;;8365814;28;20268;-69
2022/01/16 19:36:44;;;;;;;43.67;18.03;;;;;3.20;97294.00;;;;8358754;28;20788;-68
2022/01/16 19:40:49;;;;;;;43.40;18.20;;;;;3.20;97290.00;;;;8356992;28;20252;-73
2022/01/16 19:44:52;;;;;;;42.20;17.47;;;;;3.20;97315.00;;;;8358112;28;20617;-69
2022/01/16 19:48:57;;;;;;;46.30;18.50;;;;;3.20;97310.00;;;;8364899;28;20667;-69
2022/01/16 19:53:01;;;;;;;40.80;17.37;;;;;3.30;97315.00;;;;8361175;28;20275;-69
2022/01/16 19:57:05;;;;;;;38.43;18.30;;;;;3.30;97319.00;;;;8355485;28;20318;-72
2022/01/16 20:01:10;;;;;;;44.07;17.90;;;;;3.30;97338.00;;;;8362078;28;20224;-70
2022/01/16 20:05:14;;;;;;;43.20;18.00;;;;;3.30;97325.00;;;;8359324;28;20262;-68
2022/01/16 20:09:17;;;;;;;37.20;15.47;;;;;3.30;97331.00;;;;8367768;28;20260;-69
2022/01/16 20:13:23;;;;;;;39.60;17.73;;;;;3.30;97319.00;;;;8360423;28;20312;-69
2022/01/16 20:17:26;;;;;;;42.87;17.27;;;;;3.30;97332.00;;;;8354757;28;20263;-69
2022/01/16 20:21:30;;;;;;;37.10;17.23;;;;;3.40;97330.00;;;;8360081;28;20327;-69
2022/01/16 20:25:34;;;;;;;41.13;18.47;;;;;3.40;97318.00;;;;8359018;28;20326;-69
2022/01/16 20:29:41;;;;;;;39.77;16.73;;;;;3.30;97325.00;;;;8354544;28;20327;-72
2022/01/16 20:33:46;;;;;;;39.73;16.97;;;;;3.30;97336.00;;;;8358433;28;20315;-70
2022/01/16 20:37:52;;;;;;;37.33;16.13;;;;;3.30;97344.00;;;;8355015;28;20263;-69
2022/01/16 20:41:55;;;;;;;34.17;15.73;;;;;3.20;97336.00;;;;8361533;28;20280;-67
2022/01/16 20:46:00;;;;;;;39.63;16.70;;;;;3.10;97331.00;;;;8360488;28;20942;-68
2022/01/16 20:50:04;;;;;;;39.23;16.40;;;;;3.10;97328.00;;;;8357356;28;20304;-72
2022/01/16 20:54:08;;;;;;;39.40;16.13;;;;;3.10;97330.00;;;;8364778;28;20218;-70